createdAt,value
2023-04-15T00:01:19.798Z,4.45
2023-04-15T00:03:48.740Z,6.25
2023-04-15T00:06:17.385Z,5.72
2023-04-15T00:08:46.892Z,9.10
2023-04-15T00:11:15.987Z,10.13
2023-04-15T00:13:44.426Z,7.95
2023-04-15T00:16:13.004Z,8.40
2023-04-15T00:18:41.304Z,8.30
2023-04-15T00:21:09.714Z,8.35
2023-04-15T00:23:37.965Z,7.60
2023-04-15T00:26:07.855Z,6.18
2023-04-15T00:28:36.013Z,6.97
2023-04-15T00:31:04.584Z,7.00
2023-04-15T00:33:32.865Z,6.72
2023-04-15T00:36:01.761Z,9.38
2023-04-15T00:38:29.987Z,7.65
2023-04-15T00:40:58.678Z,9.23
2023-04-15T00:43:28.218Z,8.98
2023-04-15T00:45:58.585Z,6.20
2023-04-15T00:48:28.061Z,7.07
2023-04-15T00:50:56.937Z,6.93
2023-04-15T00:53:25.156Z,9.45
2023-04-15T00:55:53.752Z,6.07
2023-04-15T00:58:21.857Z,8.38
2023-04-15T01:00:54.453Z,8.05
2023-04-15T01:03:22.853Z,7.55
2023-04-15T01:05:53.064Z,8.13
2023-04-15T01:08:21.217Z,7.40
2023-04-15T01:10:49.925Z,7.57
2023-04-15T01:13:18.052Z,6.93
2023-04-15T03:30:23.400Z,3.75
2023-04-15T03:32:52.076Z,4.80
2023-04-15T03:35:20.439Z,4.35
2023-04-15T03:37:49.343Z,4.10
2023-04-15T03:40:17.589Z,5.05
2023-04-15T03:42:46.121Z,4.35
2023-04-15T03:45:14.318Z,5.25
2023-04-15T03:47:44.201Z,5.28
2023-04-15T03:50:12.571Z,4.78
2023-04-15T03:52:40.997Z,5.05
2023-04-15T03:55:10.294Z,5.38
2023-04-15T03:57:39.935Z,5.20
2023-04-15T04:00:10.667Z,5.30
2023-04-15T04:02:39.529Z,4.13
2023-04-15T04:05:10.055Z,5.30
2023-04-15T04:07:38.446Z,4.25
2023-04-15T04:10:07.972Z,5.85
2023-04-15T04:12:36.391Z,4.82
2023-04-15T04:15:04.994Z,6.15
2023-04-15T04:17:42.400Z,4.28
2023-04-15T04:20:12.502Z,6.22
2023-04-15T04:22:41.349Z,4.85
2023-04-15T04:25:11.280Z,6.53
2023-04-15T04:27:39.667Z,7.63
2023-04-15T04:30:09.200Z,6.90
2023-04-15T04:32:37.739Z,6.43
2023-04-15T04:35:06.219Z,5.30
2023-04-15T04:37:36.270Z,8.65
2023-04-15T04:40:04.868Z,5.80
2023-04-15T04:42:33.342Z,10.07
2023-04-15T04:45:01.492Z,7.13
2023-04-15T04:47:30.335Z,6.80
2023-04-15T04:49:58.519Z,8.13
2023-04-15T04:52:26.913Z,7.65
2023-04-15T04:54:56.412Z,6.78
2023-04-15T04:57:24.945Z,11.35
2023-04-15T04:59:53.230Z,11.13
2023-04-15T05:02:22.075Z,11.35
2023-04-15T05:04:50.435Z,9.38
2023-04-15T05:07:20.871Z,9.23
2023-04-15T05:09:49.196Z,8.95
2023-04-15T05:12:19.026Z,9.00
2023-04-15T05:14:47.927Z,10.02
2023-04-15T05:17:16.482Z,9.52
2023-04-15T05:19:44.762Z,9.15
2023-04-15T05:22:13.147Z,9.93
2023-04-15T05:24:41.376Z,9.15
2023-04-15T05:27:11.664Z,9.63
2023-04-15T05:29:41.183Z,10.07
2023-04-15T05:32:09.598Z,8.05
2023-04-15T05:34:37.743Z,10.25
2023-04-15T05:37:06.204Z,9.75
2023-04-15T05:39:34.617Z,8.48
2023-04-15T05:42:03.629Z,8.48
2023-04-15T05:44:31.969Z,7.68
2023-04-15T05:47:03.639Z,9.90
2023-04-15T05:52:00.834Z,9.15
2023-04-15T05:54:29.036Z,10.55
2023-04-15T05:56:57.787Z,9.68
2023-04-15T05:59:26.000Z,9.70
2023-04-15T06:01:54.544Z,10.48
2023-04-15T06:04:24.345Z,7.75
2023-04-15T06:06:52.944Z,7.07
2023-04-15T06:09:21.371Z,9.95
2023-04-15T06:11:49.810Z,10.85
2023-04-15T06:14:18.082Z,9.27
2023-04-15T06:16:47.065Z,10.77
2023-04-15T06:19:16.040Z,9.23
2023-04-15T06:21:46.193Z,9.95
2023-04-15T06:24:14.420Z,11.07
2023-04-15T06:26:43.068Z,10.48
2023-04-15T06:29:11.406Z,7.78
2023-04-15T06:31:40.029Z,8.15
2023-04-15T06:34:08.322Z,7.50
2023-04-15T06:36:36.813Z,7.25
2023-04-15T06:39:06.520Z,7.85
2023-04-15T06:41:35.733Z,6.00
2023-04-15T06:44:03.871Z,7.13
2023-04-15T06:46:32.437Z,6.63
2023-04-15T06:49:00.786Z,7.45
2023-04-15T06:51:29.482Z,7.05
2023-04-15T06:53:58.028Z,11.88
2023-04-15T06:56:27.919Z,6.93
2023-04-15T06:58:56.267Z,6.43
2023-04-15T07:01:24.773Z,8.60
2023-04-15T07:03:53.181Z,5.13
2023-04-15T07:06:22.097Z,5.90
2023-04-15T07:08:50.488Z,6.40
2023-04-15T07:11:19.204Z,5.00
2023-04-15T07:13:48.725Z,5.93
2023-04-15T07:16:17.502Z,5.40
2023-04-15T07:18:45.793Z,7.18
2023-04-15T07:21:14.346Z,6.88
2023-04-15T07:23:43.694Z,6.97
2023-04-15T07:26:12.470Z,8.10
2023-04-15T07:28:40.681Z,8.80
2023-04-15T07:31:10.686Z,6.53
2023-04-15T07:33:38.923Z,6.22
2023-04-15T07:36:07.655Z,7.72
2023-04-15T07:38:35.913Z,8.10
2023-04-15T07:41:05.024Z,9.13
2023-04-15T07:43:33.458Z,7.75
2023-04-15T07:46:02.114Z,7.63
2023-04-15T07:48:32.105Z,9.80
2023-04-15T07:51:00.745Z,6.80
2023-04-15T07:53:28.945Z,8.88
2023-04-15T07:55:57.491Z,7.05
2023-04-15T07:58:25.894Z,5.80
2023-04-15T08:00:55.341Z,5.10
2023-04-15T08:03:23.918Z,5.60
2023-04-15T08:05:54.464Z,8.02
2023-04-15T08:08:22.682Z,7.95
2023-04-15T08:10:52.820Z,5.97
2023-04-15T08:13:22.440Z,6.30
2023-04-15T08:16:16.303Z,5.43
2023-04-15T08:18:44.596Z,5.18
2023-04-15T08:21:15.054Z,8.18
2023-04-15T08:23:43.889Z,5.35
2023-04-15T08:26:12.920Z,4.90
2023-04-15T08:28:42.107Z,5.15
2023-04-15T08:31:10.658Z,4.20
2023-04-15T08:33:38.875Z,5.13
2023-04-15T08:36:07.816Z,6.75
2023-04-15T08:38:37.634Z,4.28
2023-04-15T08:41:11.743Z,4.50
2023-04-15T08:43:50.817Z,4.38
2023-04-15T08:46:19.849Z,2.60
2023-04-15T08:48:49.430Z,3.35
2023-04-15T08:51:18.263Z,3.42
2023-04-15T08:53:48.051Z,4.13
2023-04-15T08:56:17.481Z,5.03
2023-04-15T08:58:46.197Z,2.67
2023-04-15T09:01:15.079Z,4.30
2023-04-15T09:03:43.757Z,3.28
2023-04-15T09:06:13.158Z,6.78
2023-04-15T09:08:41.477Z,3.58
2023-04-15T09:11:12.411Z,2.08
2023-04-15T09:13:40.637Z,2.13
2023-04-15T09:16:09.458Z,2.40
2023-04-15T09:18:39.863Z,1.98
2023-04-15T09:21:11.299Z,2.35
2023-04-15T09:23:41.188Z,1.63
2023-04-15T09:26:11.446Z,1.50
2023-04-15T09:28:43.689Z,2.65
2023-04-15T09:31:12.309Z,0.98
2023-04-15T09:33:56.287Z,1.38
2023-04-15T09:36:25.347Z,1.23
2023-04-15T09:38:57.622Z,1.08
2023-04-15T09:41:28.679Z,1.20
2023-04-15T09:43:57.022Z,1.38
2023-04-15T09:46:46.575Z,0.85
2023-04-15T09:49:18.325Z,1.25
2023-04-15T09:52:01.477Z,1.27
2023-04-15T09:54:47.552Z,1.70
2023-04-15T09:57:18.500Z,3.55
2023-04-15T09:59:46.760Z,1.63
2023-04-15T10:02:17.868Z,1.58
2023-04-15T10:04:50.300Z,1.65
2023-04-15T10:07:20.885Z,0.83
2023-04-15T10:09:50.092Z,1.67
2023-04-15T10:12:20.923Z,1.83
2023-04-15T10:14:57.995Z,1.27
2023-04-15T10:17:31.664Z,1.40
2023-04-15T10:20:01.161Z,2.20
2023-04-15T10:22:30.167Z,2.30
2023-04-15T10:24:58.529Z,2.00
2023-04-15T10:27:29.734Z,1.60
2023-04-15T10:29:58.603Z,2.35
2023-04-15T10:32:27.241Z,1.35
2023-04-15T10:34:55.818Z,1.25
2023-04-15T10:37:36.215Z,1.45
2023-04-15T10:40:25.776Z,2.60
2023-04-15T10:42:56.689Z,2.42
2023-04-15T10:45:28.110Z,3.80
2023-04-15T10:47:58.182Z,2.95
2023-04-15T10:50:29.922Z,2.22
2023-04-15T10:52:58.884Z,2.00
2023-04-15T10:55:28.970Z,1.20
2023-04-15T10:58:02.212Z,2.60
2023-04-15T11:00:31.594Z,1.77
2023-04-15T11:03:01.967Z,2.85
2023-04-15T11:05:51.683Z,1.00
2023-04-15T11:08:22.450Z,1.73
2023-04-15T11:10:57.974Z,3.13
2023-04-15T11:13:29.398Z,1.92
2023-04-15T11:16:02.611Z,2.47
2023-04-15T11:18:35.543Z,3.85
2023-04-15T11:21:08.310Z,3.13
2023-04-15T11:23:39.521Z,2.65
2023-04-15T11:26:12.010Z,2.30
2023-04-15T11:28:43.801Z,2.00
2023-04-15T11:31:14.860Z,2.70
2023-04-15T11:33:48.156Z,1.73
2023-04-15T11:36:16.342Z,1.83
2023-04-15T11:38:47.459Z,1.33
2023-04-15T11:41:15.866Z,1.45
2023-04-15T11:43:45.748Z,2.75
2023-04-15T11:46:14.001Z,1.98
2023-04-15T11:48:45.024Z,3.67
2023-04-15T11:51:14.033Z,2.80
2023-04-15T11:53:44.598Z,2.75
2023-04-15T11:56:18.863Z,6.25
2023-04-15T11:58:50.855Z,2.47
2023-04-15T12:01:19.804Z,3.10
2023-04-15T12:03:49.628Z,4.38
2023-04-15T12:06:20.291Z,2.90
2023-04-15T12:09:10.497Z,3.30
2023-04-15T12:11:41.500Z,4.03
2023-04-15T12:16:48.469Z,2.38
2023-04-15T12:19:20.508Z,2.45
2023-04-15T12:21:49.653Z,5.00
2023-04-15T12:24:21.855Z,3.80
2023-04-15T12:26:51.655Z,5.88
2023-04-15T12:29:25.951Z,4.70
2023-04-15T12:31:55.573Z,3.42
2023-04-15T12:34:31.390Z,4.63
2023-04-15T12:37:01.877Z,6.63
2023-04-15T12:39:32.662Z,3.40
2023-04-15T12:42:01.735Z,3.90
2023-04-15T12:44:31.726Z,5.60
2023-04-15T12:47:00.248Z,4.75
2023-04-15T12:49:29.708Z,7.82
2023-04-15T12:52:00.059Z,5.82
2023-04-15T12:54:29.216Z,3.72
2023-04-15T12:56:57.687Z,6.15
2023-04-15T12:59:26.145Z,3.83
2023-04-15T13:01:55.859Z,4.43
2023-04-15T13:04:24.651Z,4.00
2023-04-15T13:06:53.343Z,3.97
2023-04-15T13:09:22.010Z,2.75
2023-04-15T13:11:51.195Z,4.75
2023-04-15T13:14:19.703Z,4.10
2023-04-15T13:16:47.947Z,2.78
2023-04-15T13:19:17.823Z,4.05
2023-04-15T13:21:46.157Z,3.50
2023-04-15T13:24:14.727Z,2.25
2023-04-15T13:26:43.051Z,4.60
2023-04-15T13:29:12.337Z,3.40
2023-04-15T13:31:40.713Z,3.10
2023-04-15T13:34:09.327Z,2.72
2023-04-15T13:36:38.963Z,2.63
2023-04-15T13:39:07.568Z,2.95
2023-04-15T13:41:35.795Z,3.47
2023-04-15T13:44:05.564Z,4.85
2023-04-15T13:46:34.442Z,3.63
2023-04-15T13:49:02.965Z,2.85
2023-04-15T13:51:31.100Z,5.28
2023-04-15T13:54:00.991Z,5.50
2023-04-15T13:56:29.198Z,3.85
2023-04-15T13:59:02.380Z,4.40
2023-04-15T14:01:30.815Z,5.35
2023-04-15T14:03:59.391Z,2.85
2023-04-15T14:06:28.553Z,4.35
2023-04-15T14:08:56.993Z,4.22
2023-04-15T14:11:26.706Z,6.68
2023-04-15T14:13:55.304Z,4.90
2023-04-15T14:16:23.573Z,5.82
2023-04-15T14:18:52.321Z,3.97
2023-04-15T14:21:20.875Z,3.85
2023-04-15T14:23:49.746Z,3.60
2023-04-15T14:26:17.948Z,8.75
2023-04-15T14:28:48.542Z,2.85
2023-04-15T14:31:16.880Z,12.90
2023-04-15T14:33:45.409Z,4.22
2023-04-15T14:36:13.714Z,10.80
2023-04-15T14:38:42.167Z,3.95
2023-04-15T14:41:10.762Z,2.45
2023-04-15T14:43:39.299Z,2.88
2023-04-15T14:46:09.558Z,7.72
2023-04-15T14:48:38.388Z,2.97
2023-04-15T14:51:07.168Z,5.00
2023-04-15T14:53:35.876Z,2.50
2023-04-15T14:56:04.276Z,2.28
2023-04-15T14:58:33.346Z,3.05
2023-04-15T15:01:02.058Z,4.15
2023-04-15T15:03:35.518Z,3.30
2023-04-15T15:06:03.934Z,3.92
2023-04-15T15:08:32.522Z,2.55
2023-04-15T15:11:00.841Z,9.00
2023-04-15T15:13:29.309Z,15.80
2023-04-15T15:15:58.801Z,6.75
2023-04-15T15:18:27.384Z,3.17
2023-04-15T15:20:56.998Z,2.78
2023-04-15T15:23:25.714Z,2.45
2023-04-15T15:25:54.152Z,2.95
2023-04-15T15:28:22.926Z,3.30
2023-04-15T15:30:51.108Z,2.10
2023-04-15T15:33:20.882Z,3.17
2023-04-15T15:35:49.196Z,2.15
2023-04-15T15:38:19.386Z,3.70
2023-04-15T15:40:50.701Z,3.45
2023-04-15T15:43:21.362Z,3.30
2023-04-15T15:45:51.801Z,4.10
2023-04-15T15:48:20.873Z,2.63
2023-04-15T15:50:49.066Z,2.85
2023-04-15T15:53:20.987Z,3.72
2023-04-15T15:55:49.343Z,5.45
2023-04-15T15:58:17.825Z,4.55
2023-04-15T16:00:46.138Z,5.28
2023-04-15T16:03:14.959Z,9.52
2023-04-15T16:05:43.590Z,7.25
2023-04-15T16:08:12.135Z,4.60
2023-04-15T16:10:41.757Z,7.68
2023-04-15T16:13:10.704Z,4.25
2023-04-15T16:15:39.185Z,6.28
2023-04-15T16:18:08.012Z,6.38
2023-04-15T16:20:36.648Z,2.53
2023-04-15T16:23:10.540Z,3.30
2023-04-15T16:25:38.874Z,2.53
2023-04-15T16:28:22.697Z,5.25
2023-04-15T16:30:53.828Z,5.97
2023-04-15T16:33:22.500Z,6.18
2023-04-15T16:35:51.986Z,11.07
2023-04-15T16:38:20.908Z,10.38
2023-04-15T16:40:49.164Z,8.05
2023-04-15T16:43:19.252Z,12.73
2023-04-15T16:45:51.206Z,10.05
2023-04-15T16:48:20.885Z,12.23
2023-04-15T16:50:49.371Z,18.17
2023-04-15T16:53:17.851Z,13.38
2023-04-15T16:55:46.174Z,9.63
2023-04-15T16:58:14.834Z,11.40
2023-04-15T17:00:44.506Z,12.57
2023-04-15T17:03:13.019Z,9.40
2023-04-15T17:05:42.476Z,7.45
2023-04-15T17:08:11.108Z,7.47
2023-04-15T17:10:39.328Z,4.60
2023-04-15T17:13:08.328Z,6.22
2023-04-15T17:15:36.714Z,6.40
2023-04-15T17:18:07.121Z,5.03
2023-04-15T17:20:36.118Z,5.78
2023-04-15T17:23:05.278Z,5.45
2023-04-15T17:25:33.671Z,9.55
2023-04-15T17:28:02.410Z,8.10
2023-04-15T17:30:30.890Z,9.32
2023-04-15T17:32:59.729Z,11.38
2023-04-15T17:35:29.437Z,8.82
2023-04-15T17:37:59.270Z,8.98
2023-04-15T17:40:27.656Z,6.97
2023-04-15T17:42:56.396Z,6.13
2023-04-15T17:45:26.760Z,5.22
2023-04-15T17:47:55.800Z,6.13
2023-04-15T17:50:24.218Z,5.03
2023-04-15T17:52:54.189Z,4.85
2023-04-15T17:55:22.793Z,5.97
2023-04-15T17:57:51.407Z,11.02
2023-04-15T18:00:19.690Z,14.07
2023-04-15T18:02:49.034Z,26.30
2023-04-15T18:05:18.925Z,15.73
2023-04-15T18:07:47.494Z,13.25
2023-04-15T18:10:17.152Z,11.60
2023-04-15T18:12:45.568Z,8.48
2023-04-15T18:15:14.608Z,7.07
2023-04-15T18:17:43.039Z,7.43
2023-04-15T18:20:12.877Z,8.73
2023-04-15T18:22:41.537Z,6.25
2023-04-15T18:25:10.621Z,6.28
2023-04-15T18:27:40.557Z,5.60
2023-04-15T18:30:09.928Z,6.88
2023-04-15T18:32:38.572Z,7.70
2023-04-15T18:35:07.953Z,6.28
2023-04-15T18:37:36.725Z,7.57
2023-04-15T18:40:05.435Z,5.10
2023-04-15T18:42:33.994Z,7.07
2023-04-15T18:45:03.580Z,8.75
2023-04-15T18:47:32.401Z,5.45
2023-04-15T18:50:00.793Z,6.57
2023-04-15T18:52:30.828Z,7.07
2023-04-15T18:54:59.119Z,7.80
2023-04-15T18:57:31.143Z,7.40
2023-04-15T19:00:00.835Z,7.22
2023-04-15T19:02:30.722Z,14.15
2023-04-15T19:04:59.493Z,15.90
2023-04-15T19:07:28.158Z,19.42
2023-04-15T19:09:56.456Z,19.55
2023-04-15T19:12:25.170Z,17.77
2023-04-15T19:14:53.420Z,16.17
2023-04-15T19:17:21.981Z,14.60
2023-04-15T19:19:51.892Z,15.32
2023-04-15T19:22:20.474Z,13.73
2023-04-15T19:24:48.809Z,16.17
2023-04-15T19:27:17.470Z,25.23
2023-04-15T19:29:45.743Z,26.92
2023-04-15T19:32:14.806Z,23.80
2023-04-15T19:34:43.286Z,20.95
2023-04-15T19:37:13.813Z,25.13
2023-04-15T19:39:42.126Z,20.95
2023-04-15T19:42:10.868Z,18.23
2023-04-15T19:44:42.964Z,17.17
2023-04-15T19:47:12.098Z,17.02
2023-04-15T19:49:40.602Z,17.75
2023-04-15T19:52:09.247Z,19.40
2023-04-15T19:54:39.161Z,18.33
2023-04-15T19:57:07.775Z,21.52
2023-04-15T19:59:36.348Z,17.98
2023-04-15T20:02:04.984Z,20.23
2023-04-15T20:04:34.001Z,24.67
2023-04-15T20:07:02.884Z,21.45
2023-04-15T20:09:31.170Z,23.33
2023-04-15T20:12:47.216Z,20.77
2023-04-15T20:14:49.306Z,21.02
2023-04-15T20:17:17.860Z,26.35
2023-04-15T20:19:46.022Z,25.40
2023-04-15T20:22:14.508Z,30.63
2023-04-15T20:24:42.728Z,34.92
2023-04-15T20:27:12.601Z,38.20
2023-04-15T20:29:40.922Z,53.90
2023-04-15T20:32:11.673Z,57.50
2023-04-15T20:34:40.177Z,48.83
2023-04-15T20:37:08.633Z,51.78
2023-04-15T20:39:36.805Z,47.03
2023-04-15T20:42:05.407Z,40.05
2023-04-15T20:44:35.777Z,31.27
2023-04-15T20:47:04.314Z,37.30
2023-04-15T20:49:35.043Z,41.38
2023-04-15T20:52:03.766Z,42.42
2023-04-15T20:54:32.018Z,45.45
2023-04-15T20:57:01.496Z,50.70
2023-04-15T20:59:30.068Z,48.15
2023-04-15T21:01:59.950Z,43.85
2023-04-15T21:04:28.316Z,40.65
2023-04-15T21:06:56.964Z,41.45
2023-04-15T21:09:25.945Z,35.65
2023-04-15T21:12:01.019Z,32.28
2023-04-15T21:14:30.136Z,32.08
2023-04-15T21:17:00.014Z,32.47
2023-04-15T21:19:28.249Z,33.88
2023-04-15T21:21:56.671Z,32.60
2023-04-15T21:24:24.899Z,34.70
2023-04-15T21:26:53.325Z,37.60
2023-04-15T21:29:21.652Z,37.45
2023-04-15T21:31:50.107Z,38.75
2023-04-15T21:34:19.751Z,31.83
2023-04-15T21:36:48.278Z,30.38
2023-04-15T21:39:17.217Z,32.28
2023-04-15T21:41:45.893Z,33.88
2023-04-15T21:44:15.142Z,30.80
2023-04-15T21:46:46.103Z,33.47
2023-04-15T21:49:14.766Z,30.85
2023-04-15T21:51:45.770Z,33.42
2023-04-15T21:54:13.929Z,30.90
2023-04-15T21:56:43.168Z,29.42
2023-04-15T21:59:11.332Z,30.52
2023-04-15T22:01:39.827Z,31.83
2023-04-15T22:04:08.201Z,27.30
2023-04-15T22:06:36.894Z,34.10
2023-04-15T22:09:06.547Z,31.33
2023-04-15T22:11:35.083Z,33.38
2023-04-15T22:14:03.287Z,37.22
2023-04-15T22:16:31.852Z,32.80
2023-04-15T22:18:59.970Z,34.45
2023-04-15T22:21:28.645Z,33.88
2023-04-15T22:24:38.375Z,32.15
2023-04-15T22:26:47.008Z,31.60
2023-04-15T22:29:15.170Z,33.47
2023-04-15T22:31:43.893Z,33.38
2023-04-15T22:34:14.801Z,29.25
2023-04-15T22:36:43.350Z,32.08
2023-04-15T22:39:11.522Z,36.60
2023-04-15T22:41:39.865Z,35.55
2023-04-15T22:44:09.352Z,34.92
2023-04-15T22:46:38.409Z,33.78
2023-04-15T22:49:09.224Z,30.25
2023-04-15T22:51:38.374Z,31.92
2023-04-15T22:54:06.559Z,28.17
2023-04-15T22:56:35.049Z,29.10
2023-04-15T22:59:03.132Z,29.30
2023-04-15T23:01:33.030Z,27.00
2023-04-15T23:04:04.011Z,31.23
2023-04-15T23:06:37.328Z,29.52
2023-04-15T23:09:05.596Z,30.80
2023-04-15T23:11:34.118Z,28.50
2023-04-15T23:14:02.530Z,33.90
2023-04-15T23:16:32.713Z,38.58
2023-04-15T23:19:01.120Z,37.97
2023-04-15T23:21:30.035Z,40.33
2023-04-15T23:23:58.387Z,39.28
2023-04-15T23:26:27.431Z,37.33
2023-04-15T23:28:55.668Z,40.22
2023-04-15T23:31:24.385Z,36.25
2023-04-15T23:33:54.180Z,34.33
2023-04-15T23:36:22.864Z,34.00
2023-04-15T23:38:51.074Z,35.67
2023-04-15T23:41:19.500Z,36.88
2023-04-15T23:43:50.970Z,36.30
2023-04-15T23:46:21.652Z,33.53
2023-04-15T23:48:50.553Z,37.60
2023-04-15T23:51:22.490Z,34.70
2023-04-15T23:53:52.751Z,35.90
2023-04-15T23:56:22.360Z,34.83
2023-04-15T23:58:51.031Z,34.63
